Time;durP1;ratioP1;P1;durP2;ratioP2;P2;SDS_P1;SDS_P2;PMS_P1;PMS_P2;Temp;Humidity;BMP_temperature;BMP_pressure;BME280_temperature;BME280_humidity;BME280_pressure;Samples;Min_cycle;Max_cycle;Signal;HPM_P1;HPM_P2
2023/09/13 00:00:07;;;;;;;5.38;2.35;;;;;;;19.34;100.00;96504.50;5110488;28;20216;-58
2023/09/13 00:02:34;;;;;;;2.70;2.50;;;;;;;19.25;100.00;96509.22;5111047;28;20266;-58
2023/09/13 00:05:01;;;;;;;2.97;2.70;;;;;;;19.19;100.00;96510.03;5111001;28;20209;-57
2023/09/13 00:07:28;;;;;;;2.83;2.63;;;;;;;19.13;100.00;96516.16;5111352;28;20201;-56
2023/09/13 00:09:55;;;;;;;3.92;2.75;;;;;;;19.11;100.00;96510.19;5109801;28;20810;-58
2023/09/13 00:12:23;;;;;;;3.45;2.80;;;;;;;19.10;100.00;96516.56;5110582;28;20676;-57
2023/09/13 00:14:49;;;;;;;6.82;2.97;;;;;;;19.13;100.00;96521.53;5110229;28;20212;-58
2023/09/13 00:17:17;;;;;;;2.40;2.25;;;;;;;19.16;100.00;96521.16;5110628;28;20205;-57
2023/09/13 00:19:44;;;;;;;3.03;2.80;;;;;;;19.11;100.00;96520.91;5110214;28;20223;-58
2023/09/13 00:22:10;;;;;;;3.70;3.08;;;;;;;19.10;100.00;96518.41;5111176;28;20197;-58
2023/09/13 00:24:37;;;;;;;3.10;2.90;;;;;;;19.08;100.00;96517.78;5091804;28;20205;-59
2023/09/13 00:27:04;;;;;;;3.55;3.03;;;;;;;19.08;100.00;96512.44;5110876;28;20215;-57
2023/09/13 00:29:33;;;;;;;2.97;2.75;;;;;;;19.08;100.00;96515.94;5109839;28;20236;-57
2023/09/13 00:32:00;;;;;;;3.00;2.70;;;;;;;19.05;100.00;96510.16;5110805;28;20208;-58
2023/09/13 00:34:26;;;;;;;2.88;2.63;;;;;;;19.04;100.00;96513.84;5110404;28;20205;-58
2023/09/13 00:36:54;;;;;;;3.08;2.88;;;;;;;19.06;100.00;96519.84;5110605;28;20212;-59
2023/09/13 00:39:20;;;;;;;4.65;3.00;;;;;;;19.03;100.00;96522.91;5111369;28;20777;-58
2023/09/13 00:41:47;;;;;;;3.15;2.85;;;;;;;19.02;100.00;96515.91;5110308;28;20193;-56
2023/09/13 00:44:13;;;;;;;3.08;2.78;;;;;;;18.99;100.00;96516.31;5111462;28;20206;-57
2023/09/13 00:46:41;;;;;;;3.67;2.80;;;;;;;18.97;100.00;96513.00;5110647;28;20200;-58
2023/09/13 00:49:08;;;;;;;5.63;3.00;;;;;;;18.97;100.00;96513.00;5110331;28;20197;-58
2023/09/13 00:51:35;;;;;;;3.08;2.80;;;;;;;18.91;100.00;96508.44;5110602;28;20296;-58
2023/09/13 00:54:04;;;;;;;3.38;3.15;;;;;;;18.90;100.00;96510.28;5110139;28;20232;-58
2023/09/13 00:56:32;;;;;;;2.95;2.75;;;;;;;18.94;100.00;96502.66;5111156;28;20201;-58
2023/09/13 00:58:58;;;;;;;3.63;2.85;;;;;;;18.91;100.00;96500.41;5109954;28;20205;-57
2023/09/13 01:01:28;;;;;;;3.67;3.38;;;;;;;18.86;100.00;96498.28;5110794;28;20228;-58
2023/09/13 01:03:56;;;;;;;3.40;3.20;;;;;;;18.88;100.00;96505.09;5110578;28;20208;-57
2023/09/13 01:06:23;;;;;;;3.20;3.00;;;;;;;18.87;100.00;96508.84;5110484;28;20202;-57
2023/09/13 01:08:50;;;;;;;3.10;2.90;;;;;;;18.86;100.00;96509.84;5109611;28;21423;-57
2023/09/13 01:11:16;;;;;;;3.40;3.08;;;;;;;18.93;100.00;96501.00;5113791;28;20205;-57
2023/09/13 01:13:43;;;;;;;3.30;3.10;;;;;;;18.88;100.00;96513.16;5113699;28;20248;-57
2023/09/13 01:16:16;;;;;;;3.33;3.13;;;;;;;18.84;100.00;96514.59;5114121;28;20223;-57
2023/09/13 01:18:47;;;;;;;3.40;3.13;;;;;;;18.80;100.00;96502.63;5113969;28;20200;-58
2023/09/13 01:21:32;;;;;;;3.20;2.90;;;;;;;18.76;100.00;96496.00;5113620;28;20193;-57
2023/09/13 01:24:13;;;;;;;4.28;3.45;;;;;;;18.78;100.00;96498.44;5113831;28;20196;-58
2023/09/13 01:26:57;;;;;;;3.83;3.53;;;;;;;18.74;100.00;96508.72;5113425;28;20201;-58
2023/09/13 01:29:26;;;;;;;4.00;3.60;;;;;;;18.72;100.00;96505.44;5113168;28;20239;-57
2023/09/13 01:31:54;;;;;;;3.20;3.00;;;;;;;18.66;100.00;96519.63;5113727;28;20216;-57
2023/09/13 01:34:21;;;;;;;3.60;3.30;;;;;;;18.64;100.00;96521.66;5113771;28;20240;-56
2023/09/13 01:36:47;;;;;;;4.07;3.45;;;;;;;18.61;100.00;96522.06;5113675;28;20227;-58
2023/09/13 01:39:14;;;;;;;4.00;3.60;;;;;;;18.51;100.00;96526.09;5112940;28;20536;-58
2023/09/13 01:41:45;;;;;;;4.60;3.20;;;;;;;18.45;100.00;96525.00;5113250;28;20205;-58
2023/09/13 01:44:12;;;;;;;4.35;3.30;;;;;;;18.42;100.00;96524.56;5112867;28;20190;-58
2023/09/13 01:46:46;;;;;;;3.75;3.45;;;;;;;18.35;100.00;96530.69;5113410;28;20209;-58
2023/09/13 01:49:13;;;;;;;3.88;3.63;;;;;;;18.33;100.00;96542.63;5112801;28;20205;-56
2023/09/13 01:51:42;;;;;;;3.95;3.70;;;;;;;18.32;100.00;96538.28;5114275;28;20213;-57
2023/09/13 01:54:09;;;;;;;4.13;3.35;;;;;;;18.28;100.00;96545.88;5112696;28;20225;-58
2023/09/13 01:56:35;;;;;;;3.92;3.63;;;;;;;18.28;100.00;96551.22;5113223;28;20224;-58
2023/09/13 01:59:02;;;;;;;4.07;3.78;;;;;;;18.30;100.00;96551.03;5114999;28;20227;-58
2023/09/13 02:01:28;;;;;;;4.32;3.97;;;;;;;18.25;100.00;96556.97;5117980;28;20299;-60
2023/09/13 02:03:56;;;;;;;4.38;3.90;;;;;;;18.24;100.00;96555.31;5116347;28;20193;-58
2023/09/13 02:06:23;;;;;;;4.40;3.97;;;;;;;18.19;100.00;96554.22;5114296;28;20201;-58
2023/09/13 02:08:51;;;;;;;5.20;4.57;;;;;;;18.13;100.00;96552.31;5111723;28;20208;-58
2023/09/13 02:11:18;;;;;;;4.65;4.05;;;;;;;18.06;100.00;96546.09;5112175;28;20621;-58
2023/09/13 02:13:46;;;;;;;6.35;4.47;;;;;;;18.04;100.00;96545.44;5112151;28;20221;-58
2023/09/13 02:16:12;;;;;;;6.03;4.90;;;;;;;17.99;100.00;96534.50;5113209;28;20200;-58
2023/09/13 02:18:39;;;;;;;4.78;4.43;;;;;;;18.01;100.00;96537.78;5111838;28;20527;-58
2023/09/13 02:21:07;;;;;;;5.13;4.47;;;;;;;17.98;100.00;96538.19;5111500;28;20205;-58
2023/09/13 02:23:33;;;;;;;5.15;4.65;;;;;;;17.94;100.00;96540.41;5112200;28;20189;-58
2023/09/13 02:26:00;;;;;;;7.10;5.13;;;;;;;17.93;100.00;96541.41;5112770;28;20266;-58
2023/09/13 02:28:26;;;;;;;5.43;4.97;;;;;;;17.92;100.00;96540.59;5112090;28;20229;-58
2023/09/13 02:30:53;;;;;;;5.30;4.85;;;;;;;17.96;100.00;96550.94;5112486;28;20197;-56
2023/09/13 02:33:19;;;;;;;7.18;5.05;;;;;;;18.00;100.00;96546.84;5112872;28;20213;-58
2023/09/13 02:35:46;;;;;;;5.63;5.18;;;;;;;18.00;100.00;96549.50;5112361;28;20197;-58
2023/09/13 02:38:15;;;;;;;6.43;5.10;;;;;;;18.02;100.00;96548.31;5112907;28;20221;-58
2023/09/13 02:40:41;;;;;;;6.63;4.97;;;;;;;18.04;100.00;96540.91;5111863;28;20216;-57
2023/09/13 02:43:08;;;;;;;5.72;4.70;;;;;;;18.08;100.00;96550.22;5112248;28;20203;-58
2023/09/13 02:45:34;;;;;;;5.63;5.15;;;;;;;18.11;100.00;96535.63;5112194;28;20212;-58
2023/09/13 02:48:01;;;;;;;5.30;4.80;;;;;;;18.12;100.00;96542.63;5112409;28;20212;-58
2023/09/13 02:50:27;;;;;;;5.47;4.85;;;;;;;18.16;100.00;96542.06;5111938;28;20204;-59
2023/09/13 02:52:54;;;;;;;5.10;4.70;;;;;;;18.16;100.00;96536.72;5112234;28;20229;-57
2023/09/13 02:55:24;;;;;;;5.00;4.60;;;;;;;18.21;100.00;96544.19;5111371;28;20292;-57
2023/09/13 02:57:53;;;;;;;5.55;4.80;;;;;;;18.22;100.00;96538.59;5112510;28;20189;-58
2023/09/13 03:00:21;;;;;;;6.38;4.72;;;;;;;18.23;100.00;96542.94;5111813;28;20284;-57
2023/09/13 03:02:48;;;;;;;5.13;4.63;;;;;;;18.26;100.00;96537.22;5112084;28;20217;-58
2023/09/13 03:05:15;;;;;;;5.40;4.90;;;;;;;18.27;100.00;96541.56;5111716;28;20232;-56
2023/09/13 03:07:42;;;;;;;6.28;4.97;;;;;;;18.30;100.00;96545.69;5112303;28;20208;-58
2023/09/13 03:10:09;;;;;;;6.03;4.75;;;;;;;18.34;100.00;96546.97;5110870;28;20518;-58
2023/09/13 03:12:37;;;;;;;4.63;4.25;;;;;;;18.36;100.00;96544.91;5113084;28;20227;-57
2023/09/13 03:15:05;;;;;;;4.82;4.15;;;;;;;18.31;100.00;96539.31;5111309;28;20209;-58
2023/09/13 03:17:32;;;;;;;8.10;4.85;;;;;;;18.32;100.00;96531.06;5112400;28;20585;-57
2023/09/13 03:19:58;;;;;;;5.00;4.60;;;;;;;18.32;100.00;96530.25;5111548;28;20291;-58
2023/09/13 03:22:25;;;;;;;5.13;4.60;;;;;;;18.33;100.00;96531.91;5111735;28;20208;-57
2023/09/13 03:24:52;;;;;;;5.32;4.65;;;;;;;18.30;100.00;96526.94;5110795;28;20540;-58
2023/09/13 03:27:18;;;;;;;4.60;4.28;;;;;;;18.31;100.00;96525.94;5111589;28;20196;-58
2023/09/13 03:29:46;;;;;;;4.90;4.50;;;;;;;18.26;100.00;96536.38;5111973;28;20259;-56
2023/09/13 03:32:13;;;;;;;4.90;4.50;;;;;;;18.27;100.00;96527.34;5111503;28;20223;-59
2023/09/13 03:34:39;;;;;;;4.60;4.30;;;;;;;18.25;100.00;96522.16;5110397;28;20231;-58
2023/09/13 03:37:06;;;;;;;5.00;4.50;;;;;;;18.25;100.00;96516.81;5111367;28;20560;-58
2023/09/13 03:39:34;;;;;;;6.25;4.90;;;;;;;18.24;100.00;96523.22;5110826;28;20212;-58
2023/09/13 03:42:00;;;;;;;4.50;4.05;;;;;;;18.22;100.00;96532.44;5111985;28;20291;-58
2023/09/13 03:44:27;;;;;;;4.22;3.92;;;;;;;18.28;100.00;96531.69;5111669;28;20216;-56
2023/09/13 03:46:55;;;;;;;6.63;4.78;;;;;;;18.27;100.00;96533.53;5112115;28;20219;-58
2023/09/13 03:49:23;;;;;;;4.80;4.40;;;;;;;18.25;100.00;96529.34;5110802;28;20617;-58
2023/09/13 03:51:50;;;;;;;5.88;5.00;;;;;;;18.27;100.00;96532.69;5112227;28;20197;-59
2023/09/13 03:54:16;;;;;;;5.38;4.85;;;;;;;18.28;100.00;96540.50;5110421;28;20231;-58
2023/09/13 03:56:43;;;;;;;4.88;4.40;;;;;;;18.33;100.00;96542.63;5111642;28;20205;-58
2023/09/13 03:59:09;;;;;;;4.93;4.53;;;;;;;18.36;100.00;96547.56;5111408;28;20209;-57
2023/09/13 04:01:36;;;;;;;5.28;4.78;;;;;;;18.38;100.00;96545.56;5111569;28;20220;-58
2023/09/13 04:04:04;;;;;;;5.10;4.70;;;;;;;18.38;100.00;96540.19;5111372;28;20288;-58
2023/09/13 04:06:31;;;;;;;5.85;4.97;;;;;;;18.40;100.00;96543.50;5110468;28;20201;-57
2023/09/13 04:08:57;;;;;;;4.95;4.50;;;;;;;18.42;100.00;96536.13;5124956;28;20266;-56
2023/09/13 04:11:26;;;;;;;4.95;4.47;;;;;;;18.42;100.00;96530.75;5117102;28;20197;-56
2023/09/13 04:13:52;;;;;;;5.15;4.75;;;;;;;18.44;100.00;96542.09;5110726;28;20224;-58
2023/09/13 04:16:19;;;;;;;5.35;4.78;;;;;;;18.46;100.00;96536.56;5110675;28;20613;-58
2023/09/13 04:18:46;;;;;;;4.97;4.55;;;;;;;18.44;100.00;96542.09;5110467;28;20300;-56
2023/09/13 04:21:14;;;;;;;7.93;5.47;;;;;;;18.46;100.00;96537.34;5111240;28;20221;-58
2023/09/13 04:23:40;;;;;;;5.15;4.45;;;;;;;18.48;100.00;96535.31;5110828;28;20204;-56
2023/09/13 04:26:07;;;;;;;5.40;5.00;;;;;;;18.49;100.00;96538.84;5110308;28;20668;-56
2023/09/13 04:28:33;;;;;;;5.50;5.07;;;;;;;18.52;100.00;96547.34;5110694;28;20274;-58
2023/09/13 04:31:01;;;;;;;5.97;5.43;;;;;;;18.53;100.00;96550.84;5114421;28;20197;-56
2023/09/13 04:33:52;;;;;;;5.13;4.63;;;;;;;18.58;100.00;96562.63;5118921;28;20341;-58
2023/09/13 04:36:20;;;;;;;5.28;4.88;;;;;;;18.61;100.00;96550.69;5097861;28;20296;-58
2023/09/13 04:38:47;;;;;;;5.25;4.75;;;;;;;18.60;100.00;96552.53;5110764;28;20205;-58
2023/09/13 04:41:16;;;;;;;5.25;4.60;;;;;;;18.63;100.00;96565.56;5092532;28;20542;-58
2023/09/13 04:43:42;;;;;;;5.57;5.07;;;;;;;18.65;100.00;96571.53;5092977;28;20193;-58
2023/09/13 04:46:09;;;;;;;5.78;5.20;;;;;;;18.63;100.00;96565.56;5115939;28;20209;-58
2023/09/13 04:48:36;;;;;;;5.40;4.90;;;;;;;18.62;100.00;96565.75;5116282;28;20197;-58
2023/09/13 04:51:04;;;;;;;5.40;5.00;;;;;;;18.60;100.00;96571.28;5115402;28;20295;-58
2023/09/13 04:53:34;;;;;;;5.47;5.07;;;;;;;18.61;100.00;96580.97;5115806;28;20520;-59
2023/09/13 04:56:01;;;;;;;5.20;4.80;;;;;;;18.62;100.00;96579.97;5115536;28;20201;-57
2023/09/13 04:58:29;;;;;;;5.10;4.70;;;;;;;18.66;100.00;96578.56;5115342;28;20205;-58
2023/09/13 05:00:56;;;;;;;5.35;4.85;;;;;;;18.69;100.00;96585.38;5114923;28;20197;-57
2023/09/13 05:03:23;;;;;;;6.80;4.70;;;;;;;18.67;100.00;96587.44;5097939;28;20197;-57
2023/09/13 05:05:49;;;;;;;7.43;4.30;;;;;;;18.66;100.00;96597.31;5116767;28;20201;-56
2023/09/13 05:08:16;;;;;;;4.32;3.97;;;;;;;18.62;100.00;96593.34;5114434;28;20193;-58
2023/09/13 05:10:45;;;;;;;4.78;4.43;;;;;;;18.66;100.00;96594.63;5114234;28;20197;-57
2023/09/13 05:13:12;;;;;;;5.35;4.70;;;;;;;18.62;100.00;96587.16;5115577;28;20208;-58
2023/09/13 05:15:42;;;;;;;4.60;4.28;;;;;;;18.65;100.00;96590.28;5116848;28;20225;-57
2023/09/13 05:18:09;;;;;;;4.60;4.25;;;;;;;18.66;100.00;96601.84;5114550;28;20694;-58
2023/09/13 05:20:35;;;;;;;5.35;4.82;;;;;;;18.69;100.00;96604.94;5114580;28;20210;-57
2023/09/13 05:23:02;;;;;;;4.35;4.00;;;;;;;18.68;100.00;96600.59;5113793;28;20193;-58
2023/09/13 05:25:28;;;;;;;4.55;4.15;;;;;;;18.67;100.00;96604.31;5114450;28;20197;-58
2023/09/13 05:27:56;;;;;;;5.32;4.22;;;;;;;18.67;100.00;96603.50;5114352;28;20296;-58
2023/09/13 05:30:23;;;;;;;5.40;4.90;;;;;;;18.65;100.00;96601.00;5113716;28;20606;-58
2023/09/13 05:32:50;;;;;;;4.90;4.50;;;;;;;18.62;100.00;96596.03;5113430;28;20205;-58
2023/09/13 05:35:16;;;;;;;4.70;4.40;;;;;;;18.62;100.00;96596.03;5114395;28;20233;-57
2023/09/13 05:37:45;;;;;;;4.55;4.10;;;;;;;18.62;100.00;96590.69;5113909;28;20217;-57
2023/09/13 05:40:12;;;;;;;5.13;4.25;;;;;;;18.62;100.00;96579.97;5113122;28;20205;-58
2023/09/13 05:42:39;;;;;;;4.68;4.20;;;;;;;18.59;100.00;96568.81;5112881;28;20214;-59
2023/09/13 05:45:08;;;;;;;4.57;4.18;;;;;;;18.57;100.00;96574.34;5113571;28;20204;-59
2023/09/13 05:47:35;;;;;;;6.20;4.50;;;;;;;18.59;100.00;96568.81;5094999;28;20221;-58
2023/09/13 05:50:01;;;;;;;4.25;3.95;;;;;;;18.57;100.00;96566.31;5113312;28;20240;-58
2023/09/13 05:52:28;;;;;;;4.70;4.20;;;;;;;18.58;100.00;96572.50;5112958;28;20209;-58
2023/09/13 05:54:54;;;;;;;5.43;4.10;;;;;;;18.56;100.00;96577.25;5112870;28;20693;-58
2023/09/13 05:57:21;;;;;;;4.50;4.20;;;;;;;18.55;100.00;96581.75;5112002;28;20212;-58
2023/09/13 05:59:50;;;;;;;4.70;4.35;;;;;;;18.59;100.00;96584.88;5095874;28;20503;-58
2023/09/13 06:02:18;;;;;;;6.13;4.43;;;;;;;18.62;100.00;96596.03;5113126;28;20221;-58
2023/09/13 06:04:44;;;;;;;5.18;4.43;;;;;;;18.63;100.00;96589.66;5113282;28;20200;-59
2023/09/13 06:07:11;;;;;;;4.78;4.28;;;;;;;18.63;100.00;96587.00;5112910;28;20205;-59
2023/09/13 06:09:37;;;;;;;5.47;4.35;;;;;;;18.65;100.00;96587.59;5112900;28;20205;-57
2023/09/13 06:12:05;;;;;;;6.40;4.50;;;;;;;18.70;100.00;96589.72;5095062;28;20212;-59
2023/09/13 06:14:31;;;;;;;4.38;4.07;;;;;;;18.71;100.00;96588.66;5114364;28;20246;-58
2023/09/13 06:16:58;;;;;;;4.90;3.90;;;;;;;18.71;100.00;96594.03;5116834;28;20584;-58
2023/09/13 06:19:26;;;;;;;5.28;4.63;;;;;;;18.75;100.00;96593.44;5115697;28;20212;-58
2023/09/13 06:21:52;;;;;;;5.25;4.10;;;;;;;18.79;100.00;96594.72;5112717;28;20644;-57
2023/09/13 06:24:21;;;;;;;4.40;4.00;;;;;;;18.81;100.00;96589.97;5113718;28;20193;-58
2023/09/13 06:26:48;;;;;;;4.45;4.05;;;;;;;18.82;100.00;96597.00;5113267;28;20209;-58
2023/09/13 06:29:15;;;;;;;4.65;4.25;;;;;;;18.84;100.00;96589.63;5113019;28;20232;-57
2023/09/13 06:31:41;;;;;;;4.10;3.70;;;;;;;18.81;100.00;96595.34;5112574;28;20506;-58
2023/09/13 06:34:08;;;;;;;4.35;4.03;;;;;;;18.79;100.00;96601.94;5112904;28;20225;-57
2023/09/13 06:36:36;;;;;;;4.82;4.07;;;;;;;18.79;100.00;96605.44;5112362;28;20657;-58
2023/09/13 06:39:03;;;;;;;4.35;3.95;;;;;;;18.80;100.00;96609.78;5112863;28;20201;-58
2023/09/13 06:41:30;;;;;;;4.47;4.05;;;;;;;18.80;100.00;96607.09;5112568;28;20197;-58
2023/09/13 06:43:56;;;;;;;5.70;3.92;;;;;;;18.82;100.00;96613.09;5111957;28;20197;-57
2023/09/13 06:46:23;;;;;;;4.90;4.50;;;;;;;18.86;100.00;96617.03;5112679;28;20197;-57
2023/09/13 06:48:51;;;;;;;7.38;4.22;;;;;;;18.81;100.00;96611.41;5112225;28;20219;-58
2023/09/13 06:51:17;;;;;;;5.95;4.00;;;;;;;18.79;100.00;96618.00;5112287;28;20201;-57
2023/09/13 06:53:45;;;;;;;5.03;4.53;;;;;;;18.87;100.00;96621.38;5112485;28;20300;-57
2023/09/13 06:56:12;;;;;;;6.22;4.15;;;;;;;18.86;100.00;96617.03;5111919;28;20691;-58
2023/09/13 06:58:38;;;;;;;4.63;4.22;;;;;;;18.89;100.00;96613.97;5111874;28;20208;-58
2023/09/13 07:01:05;;;;;;;5.15;4.13;;;;;;;18.87;100.00;96615.19;5112327;28;20212;-59
2023/09/13 07:03:31;;;;;;;5.03;4.38;;;;;;;18.88;100.00;96625.69;5111847;28;20213;-57
2023/09/13 07:05:58;;;;;;;4.80;4.05;;;;;;;18.89;100.00;96624.66;5112439;28;20826;-56
2023/09/13 07:08:24;;;;;;;4.60;4.00;;;;;;;18.91;100.00;96626.34;5111464;28;20290;-57
2023/09/13 07:10:52;;;;;;;6.10;4.55;;;;;;;18.96;100.00;96626.56;5112360;28;20216;-59
2023/09/13 07:13:19;;;;;;;5.55;4.97;;;;;;;18.95;100.00;96628.44;5112009;28;20197;-58
2023/09/13 07:15:48;;;;;;;8.20;5.10;;;;;;;18.95;100.00;96620.41;5112161;28;20212;-57
2023/09/13 07:18:14;;;;;;;9.00;5.25;;;;;;;18.97;100.00;96630.91;5113217;28;20201;-57
2023/09/13 07:20:41;;;;;;;5.45;4.93;;;;;;;19.00;100.00;96628.66;5114599;28;20288;-58
2023/09/13 07:23:07;;;;;;;5.30;4.88;;;;;;;19.07;100.00;96631.38;5112822;28;20216;-59
2023/09/13 07:25:35;;;;;;;5.35;4.90;;;;;;;19.06;100.00;96637.78;5113269;28;20193;-58
2023/09/13 07:28:03;;;;;;;5.70;4.93;;;;;;;19.05;100.00;96646.84;5114366;28;20216;-59
2023/09/13 07:30:29;;;;;;;5.07;4.40;;;;;;;19.09;100.00;96651.63;5115420;28;20216;-61
2023/09/13 07:32:56;;;;;;;5.35;4.60;;;;;;;19.09;100.00;96651.63;5114831;28;20229;-58
2023/09/13 07:35:23;;;;;;;4.72;4.40;;;;;;;19.09;100.00;96656.16;5111523;28;20221;-58
2023/09/13 07:37:55;;;;;;;5.43;5.03;;;;;;;19.07;100.00;96658.19;5111771;28;20659;-58
2023/09/13 07:40:21;;;;;;;6.53;5.50;;;;;;;19.05;100.00;96654.91;5110507;28;20201;-59
2023/09/13 07:42:48;;;;;;;6.30;5.78;;;;;;;19.05;100.00;96654.91;5111532;28;20197;-58
2023/09/13 07:45:17;;;;;;;6.43;5.25;;;;;;;19.06;100.00;96654.69;5111660;28;20637;-58
2023/09/13 07:47:44;;;;;;;6.47;5.40;;;;;;;19.09;100.00;96661.53;5110531;28;20216;-59
2023/09/13 07:50:28;;;;;;;6.50;5.30;;;;;;;19.11;100.00;96652.25;5110827;28;20216;-58
2023/09/13 07:52:55;;;;;;;5.78;5.28;;;;;;;19.14;100.00;96651.03;5110791;28;20185;-57
2023/09/13 07:55:23;;;;;;;6.05;5.43;;;;;;;19.26;100.00;96658.34;5110296;28;20665;-58
2023/09/13 07:57:49;;;;;;;5.00;4.60;;;;;;;19.31;100.00;96661.25;5110460;28;20193;-57
2023/09/13 08:00:17;;;;;;;5.78;5.03;;;;;;;19.29;100.00;96663.31;5111133;28;20464;-58
2023/09/13 08:02:46;;;;;;;5.65;5.00;;;;;;;19.32;100.00;96667.44;5111520;28;20205;-57
2023/09/13 08:05:13;;;;;;;5.18;4.78;;;;;;;19.35;100.00;96667.03;5110799;28;20201;-59
2023/09/13 08:07:39;;;;;;;5.38;4.88;;;;;;;19.38;100.00;96672.00;5111407;28;20197;-58
2023/09/13 08:10:07;;;;;;;5.07;4.57;;;;;;;19.45;100.00;96670.22;5110162;28;20209;-58
2023/09/13 08:12:33;;;;;;;7.50;5.75;;;;;;;19.47;100.00;96681.59;5111352;28;20205;-59
2023/09/13 08:15:00;;;;;;;5.97;5.47;;;;;;;19.45;100.00;96678.28;5112128;28;20213;-58
2023/09/13 08:17:27;;;;;;;6.15;5.60;;;;;;;19.50;100.00;96685.72;5111223;28;20305;-57
2023/09/13 08:19:54;;;;;;;6.32;5.72;;;;;;;19.51;100.00;96690.91;5113077;28;20284;-61
2023/09/13 08:22:24;;;;;;;5.95;5.50;;;;;;;19.53;100.00;96694.22;5115640;28;20199;-58
2023/09/13 08:24:50;;;;;;;6.72;6.10;;;;;;;19.52;100.00;96695.22;5114898;28;20226;-59
2023/09/13 08:27:17;;;;;;;6.85;6.22;;;;;;;19.53;100.00;96702.25;5115112;28;20201;-58
2023/09/13 08:29:45;;;;;;;6.10;5.55;;;;;;;19.58;100.00;96705.19;5114258;28;20692;-57
2023/09/13 08:32:11;;;;;;;6.32;5.80;;;;;;;19.59;100.00;96709.50;5114565;28;20668;-59
2023/09/13 08:34:38;;;;;;;5.57;5.07;;;;;;;19.68;100.00;96707.50;5114455;28;20201;-58
2023/09/13 08:37:05;;;;;;;6.43;5.82;;;;;;;19.71;100.00;96716.00;5114595;28;20644;-58
2023/09/13 08:39:31;;;;;;;6.00;5.50;;;;;;;19.75;100.00;96711.88;5114199;28;20520;-59
2023/09/13 08:41:58;;;;;;;6.38;5.88;;;;;;;19.76;100.00;96713.56;5114745;28;20197;-59
2023/09/13 08:44:25;;;;;;;5.80;5.30;;;;;;;19.83;100.00;96717.09;5114651;28;20280;-59
2023/09/13 08:46:55;;;;;;;5.50;5.07;;;;;;;19.88;100.00;96713.78;5114439;28;20208;-59
2023/09/13 08:49:22;;;;;;;6.20;5.70;;;;;;;19.92;100.00;96715.06;5114499;28;20292;-57
2023/09/13 08:51:51;;;;;;;6.60;5.88;;;;;;;19.95;100.00;96716.50;5114735;28;20201;-58
2023/09/13 08:54:19;;;;;;;6.70;5.57;;;;;;;19.92;100.00;96724.97;5114303;28;20630;-59
2023/09/13 08:56:46;;;;;;;6.03;5.55;;;;;;;19.98;100.00;96729.56;5114723;28;20217;-57
2023/09/13 08:59:14;;;;;;;5.80;5.38;;;;;;;20.07;100.00;96722.97;5113016;28;20209;-58
2023/09/13 09:01:45;;;;;;;5.90;5.40;;;;;;;20.13;100.00;96717.63;5114735;28;20216;-59
2023/09/13 09:04:14;;;;;;;5.32;4.95;;;;;;;20.17;100.00;96723.44;5114525;28;20263;-57
2023/09/13 09:06:41;;;;;;;6.10;5.50;;;;;;;20.31;100.00;96734.06;5114559;28;20261;-57
2023/09/13 09:09:09;;;;;;;4.80;4.38;;;;;;;20.24;100.00;96733.16;5114224;28;21295;-59
2023/09/13 09:11:37;;;;;;;5.43;4.82;;;;;;;20.30;100.00;96734.25;5113689;28;20216;-58
2023/09/13 09:14:04;;;;;;;7.07;5.80;;;;;;;20.37;100.00;96732.41;5114489;28;20247;-59
2023/09/13 09:16:31;;;;;;;6.47;5.88;;;;;;;20.37;100.00;96736.97;5113635;28;20668;-58
2023/09/13 09:19:00;;;;;;;7.40;6.18;;;;;;;20.34;100.00;96733.66;5113406;28;20998;-58
2023/09/13 09:21:26;;;;;;;5.63;5.13;;;;;;;20.39;100.00;96734.91;5113705;28;20220;-58
2023/09/13 09:23:53;;;;;;;5.70;5.20;;;;;;;20.43;100.00;96736.16;5113881;28;20197;-57
2023/09/13 09:26:21;;;;;;;6.55;5.88;;;;;;;20.58;100.00;96742.19;5113191;28;20197;-58
2023/09/13 09:28:48;;;;;;;5.50;5.00;;;;;;;20.68;100.00;96748.84;5113342;28;20229;-57
2023/09/13 09:31:17;;;;;;;5.45;4.63;;;;;;;20.71;100.00;96748.44;5113186;28;20205;-59
2023/09/13 09:33:43;;;;;;;4.68;4.35;;;;;;;20.78;100.00;96743.91;5113732;28;20228;-58
2023/09/13 09:36:12;;;;;;;5.13;4.70;;;;;;;20.88;100.00;96746.19;5113131;28;20229;-57
2023/09/13 09:38:38;;;;;;;5.40;4.82;;;;;;;20.94;100.00;96749.94;5113378;28;20262;-59
2023/09/13 09:41:06;;;;;;;4.70;4.40;;;;;;;20.98;100.00;96753.84;5113065;28;20208;-59
2023/09/13 09:43:36;;;;;;;4.82;4.43;;;;;;;20.96;100.00;96742.47;5113901;28;20220;-58
2023/09/13 09:46:02;;;;;;;5.32;4.43;;;;;;;20.93;100.00;96753.63;5113210;28;20220;-58
2023/09/13 09:48:29;;;;;;;4.88;4.45;;;;;;;21.02;100.00;96753.22;5113260;28;20200;-59
2023/09/13 09:50:56;;;;;;;6.25;4.85;;;;;;;20.99;100.00;96744.75;5113513;28;20308;-58
2023/09/13 09:53:24;;;;;;;4.90;4.60;;;;;;;20.97;100.00;96749.50;5113824;28;20247;-58
2023/09/13 09:55:51;;;;;;;5.30;4.80;;;;;;;20.99;100.00;96744.75;5112529;28;20311;-58
2023/09/13 09:58:18;;;;;;;6.55;4.85;;;;;;;21.01;100.00;96751.56;5113210;28;20201;-58
2023/09/13 10:00:48;;;;;;;4.93;4.53;;;;;;;21.01;100.00;96751.56;5112673;28;20205;-58
2023/09/13 10:03:17;;;;;;;5.18;4.78;;;;;;;20.88;100.00;96745.34;5113403;28;20219;-59
2023/09/13 10:05:55;;;;;;;4.85;4.45;;;;;;;20.85;100.00;96750.13;5112900;28;20197;-58
2023/09/13 10:08:38;;;;;;;5.03;4.28;;;;;;;20.86;100.00;96748.25;5113235;28;20208;-57
2023/09/13 10:11:04;;;;;;;4.65;4.35;;;;;;;20.83;100.00;96746.78;5112785;28;20208;-58
2023/09/13 10:13:31;;;;;;;5.50;5.10;;;;;;;20.81;100.00;96751.56;5112257;28;20213;-58
2023/09/13 10:16:00;;;;;;;5.47;4.50;;;;;;;20.72;100.00;96747.41;5112951;28;20244;-59
2023/09/13 10:18:30;;;;;;;5.30;4.72;;;;;;;20.66;100.00;96756.25;5111967;28;20224;-59
2023/09/13 10:20:59;;;;;;;4.63;4.32;;;;;;;20.63;100.00;96756.69;5113241;28;20193;-57
2023/09/13 10:23:30;;;;;;;5.28;4.88;;;;;;;20.61;100.00;96755.22;5112638;28;20205;-58
2023/09/13 10:25:59;;;;;;;5.00;4.60;;;;;;;20.61;100.00;96758.75;5112262;28;20212;-59
2023/09/13 10:28:28;;;;;;;4.60;4.30;;;;;;;20.63;100.00;96751.31;5112020;28;20233;-58
2023/09/13 10:30:54;;;;;;;4.75;4.40;;;;;;;20.58;100.00;96755.63;5112468;28;20197;-59
2023/09/13 10:33:23;;;;;;;4.88;4.47;;;;;;;20.60;100.00;96748.19;5112724;28;20244;-60
2023/09/13 10:35:54;;;;;;;4.88;4.40;;;;;;;20.52;100.00;96746.50;5112600;28;20224;-58
2023/09/13 10:38:26;;;;;;;4.95;4.55;;;;;;;20.50;100.00;96753.13;5124531;28;20211;-59
2023/09/13 10:40:59;;;;;;;4.32;4.03;;;;;;;20.59;100.00;96752.72;5117837;28;20211;-59
2023/09/13 10:43:27;;;;;;;5.05;4.65;;;;;;;20.58;100.00;96748.38;5113909;28;20224;-58
2023/09/13 10:45:54;;;;;;;5.65;5.22;;;;;;;20.55;100.00;96748.78;5113485;28;20209;-58
2023/09/13 10:48:23;;;;;;;5.10;4.70;;;;;;;20.61;100.00;96747.16;5114875;28;20212;-58
2023/09/13 10:50:50;;;;;;;6.72;5.20;;;;;;;20.61;100.00;96750.69;5111765;28;20522;-58
2023/09/13 10:53:18;;;;;;;6.07;5.10;;;;;;;20.66;100.00;96752.75;5111983;28;20336;-58
2023/09/13 10:55:45;;;;;;;5.30;4.80;;;;;;;20.68;100.00;96740.78;5111228;28;20229;-59
2023/09/13 10:58:18;;;;;;;6.65;4.88;;;;;;;20.68;100.00;96751.53;5112037;28;20209;-59
2023/09/13 11:00:45;;;;;;;5.78;5.07;;;;;;;20.73;100.00;96749.03;5111819;28;20209;-58
2023/09/13 11:03:12;;;;;;;5.47;5.03;;;;;;;20.80;100.00;96752.56;5093543;28;20201;-58
2023/09/13 11:05:41;;;;;;;6.13;4.70;;;;;;;20.78;100.00;96746.59;5111406;28;20188;-59
2023/09/13 11:08:11;;;;;;;5.28;4.78;;;;;;;20.77;100.00;96752.16;5112225;28;20507;-58
2023/09/13 11:10:38;;;;;;;6.43;4.70;;;;;;;20.77;100.00;96755.69;5111011;28;20197;-59
2023/09/13 11:13:14;;;;;;;4.82;4.43;;;;;;;20.75;100.00;96747.00;5111714;28;20526;-58
2023/09/13 11:15:48;;;;;;;6.80;4.60;;;;;;;20.81;100.00;96754.25;5111623;28;20216;-58
2023/09/13 11:18:15;;;;;;;4.50;4.10;;;;;;;20.83;100.00;96754.03;5111435;28;20653;-58
2023/09/13 11:20:44;;;;;;;4.57;4.28;;;;;;;20.85;100.00;96763.56;5111328;28;20212;-58
2023/09/13 11:23:14;;;;;;;6.10;5.53;;;;;;;20.89;100.00;96763.13;5111304;28;20217;-58
2023/09/13 11:25:43;;;;;;;4.93;4.53;;;;;;;20.89;100.00;96745.16;5111382;28;20293;-58